createdAt,value
2018-09-08T00:00:54.547Z,4.10
2018-09-08T00:03:21.550Z,4.10
2018-09-08T00:05:48.618Z,3.85
2018-09-08T00:08:15.601Z,3.90
2018-09-08T00:10:42.578Z,3.70
2018-09-08T00:13:09.559Z,3.92
2018-09-08T00:15:42.672Z,3.77
2018-09-08T00:18:15.480Z,3.80
2018-09-08T00:20:48.233Z,3.98
2018-09-08T00:23:21.039Z,3.87
2018-09-08T00:25:53.827Z,3.80
2018-09-08T00:28:29.230Z,3.75
2018-09-08T00:30:56.233Z,3.40
2018-09-08T00:33:23.219Z,3.58
2018-09-08T00:35:50.212Z,3.55
2018-09-08T00:38:17.224Z,3.52
2018-09-08T00:40:44.179Z,3.58
2018-09-08T00:43:11.155Z,3.90
2018-09-08T00:45:38.134Z,3.50
2018-09-08T00:48:05.100Z,3.80
2018-09-08T00:50:32.138Z,3.90
2018-09-08T00:52:59.135Z,3.60
2018-09-08T00:55:26.105Z,3.60
2018-09-08T00:57:53.095Z,3.80
2018-09-08T01:00:20.071Z,3.55
2018-09-08T01:02:47.048Z,3.85
2018-09-08T01:05:14.063Z,4.00
2018-09-08T01:07:41.063Z,3.50
2018-09-08T01:10:08.019Z,3.60
2018-09-08T01:12:34.998Z,3.60
2018-09-08T01:15:02.028Z,3.65
2018-09-08T01:17:29.538Z,3.90
2018-09-08T01:19:56.531Z,3.72
2018-09-08T01:22:23.478Z,3.75
2018-09-08T01:24:50.443Z,3.75
2018-09-08T01:27:17.413Z,3.70
2018-09-08T01:29:44.390Z,3.60
2018-09-08T01:32:11.343Z,3.72
2018-09-08T01:34:38.319Z,3.80
2018-09-08T01:37:05.272Z,3.60
2018-09-08T01:39:32.248Z,3.72
2018-09-08T01:41:59.276Z,3.57
2018-09-08T01:44:26.274Z,3.58
2018-09-08T01:46:53.222Z,3.72
2018-09-08T01:49:20.399Z,4.00
2018-09-08T01:51:47.380Z,3.63
2018-09-08T01:54:14.362Z,3.87
2018-09-08T01:56:41.354Z,3.90
2018-09-08T01:59:08.505Z,3.90
2018-09-08T02:01:35.456Z,3.75
2018-09-08T02:04:02.460Z,4.33
2018-09-08T02:06:29.398Z,4.28
2018-09-08T02:08:56.350Z,4.25
2018-09-08T02:11:23.335Z,4.12
2018-09-08T02:13:50.466Z,4.30
2018-09-08T02:16:17.453Z,4.00
2018-09-08T02:18:44.754Z,4.28
2018-09-08T02:21:11.709Z,4.17
2018-09-08T02:23:38.651Z,3.80
2018-09-08T02:26:05.622Z,3.85
2018-09-08T02:28:33.019Z,3.80
2018-09-08T02:31:00.226Z,3.87
2018-09-08T02:33:27.205Z,3.95
2018-09-08T02:35:54.173Z,3.90
2018-09-08T02:38:21.131Z,3.70
2018-09-08T02:40:48.088Z,3.67
2018-09-08T02:43:15.031Z,4.10
2018-09-08T02:45:41.998Z,3.90
2018-09-08T02:48:08.996Z,4.00
2018-09-08T02:50:40.004Z,3.87
2018-09-08T02:53:08.163Z,4.10
2018-09-08T02:55:34.632Z,3.80
2018-09-08T02:58:01.167Z,3.70
2018-09-08T03:00:27.823Z,4.05
2018-09-08T03:02:54.259Z,4.10
2018-09-08T03:05:20.612Z,3.72
2018-09-08T03:07:46.974Z,4.03
2018-09-08T03:10:13.533Z,3.70
2018-09-08T03:12:39.765Z,4.33
2018-09-08T03:15:05.994Z,4.10
2018-09-08T03:17:32.227Z,4.05
2018-09-08T03:19:58.935Z,4.00
2018-09-08T03:22:25.134Z,4.00
2018-09-08T03:24:51.359Z,4.10
2018-09-08T03:27:17.706Z,3.90
2018-09-08T03:29:43.927Z,3.90
2018-09-08T03:32:10.154Z,3.98
2018-09-08T03:34:36.410Z,3.92
2018-09-08T03:37:02.632Z,4.05
2018-09-08T03:39:28.850Z,4.00
2018-09-08T03:41:55.054Z,3.70
2018-09-08T03:44:21.250Z,3.95
2018-09-08T03:46:47.475Z,3.95
2018-09-08T03:49:13.855Z,3.90
2018-09-08T03:51:40.044Z,3.72
2018-09-08T03:54:06.263Z,4.10
2018-09-08T03:56:32.497Z,3.52
2018-09-08T03:58:58.824Z,3.80
2018-09-08T04:01:25.023Z,3.47
2018-09-08T04:03:51.975Z,3.85
2018-09-08T04:06:18.944Z,3.40
2018-09-08T04:08:46.011Z,3.93
2018-09-08T04:11:12.980Z,3.90
2018-09-08T04:13:40.006Z,4.10
2018-09-08T04:16:06.982Z,4.20
2018-09-08T04:18:34.138Z,4.27
2018-09-08T04:21:01.392Z,4.05
2018-09-08T04:23:28.359Z,4.20
2018-09-08T04:25:55.319Z,4.30
2018-09-08T04:28:22.294Z,3.98
2018-09-08T04:30:49.274Z,3.80
2018-09-08T04:33:16.231Z,3.70
2018-09-08T04:35:43.250Z,3.83
2018-09-08T04:38:10.289Z,3.80
2018-09-08T04:40:37.253Z,4.25
2018-09-08T04:43:04.278Z,3.90
2018-09-08T04:45:31.255Z,4.17
2018-09-08T04:47:58.198Z,4.05
2018-09-08T04:50:25.159Z,4.37
2018-09-08T04:52:52.116Z,4.08
2018-09-08T04:55:19.062Z,4.35
2018-09-08T04:57:46.010Z,4.00
2018-09-08T05:00:12.972Z,4.20
2018-09-08T05:02:39.938Z,4.10
2018-09-08T05:05:06.914Z,4.08
2018-09-08T05:07:33.871Z,4.65
2018-09-08T05:10:00.823Z,4.22
2018-09-08T05:12:27.777Z,4.37
2018-09-08T05:14:54.750Z,4.33
2018-09-08T05:17:21.802Z,4.15
2018-09-08T05:19:48.806Z,4.25
2018-09-08T05:22:16.051Z,4.03
2018-09-08T05:24:43.024Z,4.22
2018-09-08T05:27:10.006Z,4.10
2018-09-08T05:29:36.976Z,4.37
2018-09-08T05:32:03.932Z,4.40
2018-09-08T05:34:30.877Z,4.30
2018-09-08T05:36:57.846Z,4.33
2018-09-08T05:39:24.800Z,4.30
2018-09-08T05:41:51.744Z,3.90
2018-09-08T05:44:18.692Z,4.03
2018-09-08T05:46:45.659Z,4.70
2018-09-08T05:49:12.596Z,4.45
2018-09-08T05:51:39.551Z,3.98
2018-09-08T05:54:06.499Z,4.00
2018-09-08T05:56:33.454Z,4.00
2018-09-08T05:59:00.419Z,4.23
2018-09-08T06:01:27.392Z,4.33
2018-09-08T06:03:54.335Z,4.20
2018-09-08T06:06:21.312Z,4.50
2018-09-08T06:08:48.257Z,4.30
2018-09-08T06:11:15.208Z,4.20
2018-09-08T06:13:42.196Z,4.15
2018-09-08T06:16:09.150Z,4.25
2018-09-08T06:18:36.108Z,4.03
2018-09-08T06:21:03.143Z,4.70
2018-09-08T06:23:30.511Z,4.40
2018-09-08T06:25:57.450Z,4.60
2018-09-08T06:28:24.504Z,4.42
2018-09-08T06:30:51.402Z,4.12
2018-09-08T06:33:18.406Z,5.85
2018-09-08T06:35:45.338Z,4.40
2018-09-08T06:38:12.301Z,4.25
2018-09-08T06:40:39.254Z,4.30
2018-09-08T06:43:06.224Z,4.50
2018-09-08T06:45:33.183Z,4.50
2018-09-08T06:48:00.166Z,4.35
2018-09-08T06:50:27.163Z,4.72
2018-09-08T06:52:54.119Z,4.00
2018-09-08T06:55:21.083Z,4.00
2018-09-08T06:57:48.069Z,16.37
2018-09-08T07:00:15.032Z,8.48
2018-09-08T07:02:42.004Z,5.05
2018-09-08T07:05:08.972Z,10.25
2018-09-08T07:07:35.923Z,7.72
2018-09-08T07:10:02.882Z,5.00
2018-09-08T07:12:29.855Z,7.75
2018-09-08T07:14:56.805Z,3.77
2018-09-08T07:17:23.763Z,3.60
2018-09-08T07:19:50.741Z,3.75
2018-09-08T07:22:17.714Z,6.20
2018-09-08T07:24:45.116Z,9.55
2018-09-08T07:27:12.026Z,3.75
2018-09-08T07:29:38.986Z,3.60
2018-09-08T07:32:05.937Z,3.50
2018-09-08T07:34:33.982Z,3.43
2018-09-08T07:37:00.711Z,3.15
2018-09-08T07:39:28.208Z,2.93
2018-09-08T07:41:55.186Z,2.77
2018-09-08T07:44:22.139Z,3.15
2018-09-08T07:46:49.095Z,2.80
2018-09-08T07:49:16.259Z,2.80
2018-09-08T07:51:43.210Z,2.35
2018-09-08T07:54:13.087Z,2.70
2018-09-08T07:56:39.326Z,2.40
2018-09-08T07:59:06.385Z,2.45
2018-09-08T08:01:33.388Z,2.55
2018-09-08T08:04:00.364Z,2.20
2018-09-08T08:06:27.358Z,2.30
2018-09-08T08:08:54.321Z,2.60
2018-09-08T08:11:21.287Z,2.27
2018-09-08T08:13:48.294Z,2.30
2018-09-08T08:16:15.326Z,2.47
2018-09-08T08:18:42.310Z,2.50
2018-09-08T08:21:09.323Z,2.15
2018-09-08T08:23:36.267Z,2.50
2018-09-08T08:26:05.074Z,2.20
2018-09-08T08:28:32.012Z,2.40
2018-09-08T08:30:58.997Z,2.50
2018-09-08T08:33:25.986Z,3.90
2018-09-08T08:35:52.924Z,2.50
2018-09-08T08:38:19.875Z,5.80
2018-09-08T08:40:46.830Z,5.72
2018-09-08T08:43:13.975Z,2.52
2018-09-08T08:45:40.975Z,2.30
2018-09-08T08:48:07.955Z,3.33
2018-09-08T08:50:46.611Z,3.40
2018-09-08T08:53:25.271Z,2.47
2018-09-08T08:55:52.281Z,2.22
2018-09-08T08:58:19.212Z,2.40
2018-09-08T09:00:46.256Z,2.60
2018-09-08T09:03:13.221Z,2.50
2018-09-08T09:05:40.190Z,2.35
2018-09-08T09:08:07.176Z,2.42
2018-09-08T09:10:34.206Z,2.20
2018-09-08T09:13:01.192Z,2.30
2018-09-08T09:15:28.397Z,2.30
2018-09-08T09:17:55.079Z,2.50
2018-09-08T09:20:33.747Z,2.45
2018-09-08T09:23:10.443Z,2.45
2018-09-08T09:25:37.408Z,2.90
2018-09-08T09:28:04.734Z,2.87
2018-09-08T09:30:32.209Z,2.67
2018-09-08T09:32:58.970Z,2.40
2018-09-08T09:35:25.915Z,2.20
2018-09-08T09:37:54.546Z,2.50
2018-09-08T09:40:22.058Z,2.42
2018-09-08T09:42:49.028Z,2.47
2018-09-08T09:45:15.994Z,2.40
2018-09-08T09:47:42.987Z,2.20
2018-09-08T09:50:11.010Z,3.25
2018-09-08T09:52:38.131Z,2.27
2018-09-08T09:55:05.116Z,2.20
2018-09-08T09:57:32.101Z,2.15
2018-09-08T09:59:59.174Z,2.17
2018-09-08T10:02:39.113Z,2.10
2018-09-08T10:05:07.301Z,2.17
2018-09-08T10:07:34.379Z,1.90
2018-09-08T10:10:01.387Z,2.10
2018-09-08T10:12:28.334Z,1.80
2018-09-08T10:14:55.338Z,2.20
2018-09-08T10:17:22.313Z,2.00
2018-09-08T10:19:49.308Z,1.87
2018-09-08T10:22:16.276Z,2.10
2018-09-08T10:24:43.268Z,2.08
2018-09-08T10:27:10.244Z,2.00
2018-09-08T10:29:37.593Z,2.00
2018-09-08T10:32:04.953Z,2.33
2018-09-08T10:34:31.871Z,2.42
2018-09-08T10:36:58.832Z,2.40
2018-09-08T10:39:25.794Z,2.00
2018-09-08T10:41:53.758Z,2.20
2018-09-08T10:44:20.710Z,2.00
2018-09-08T10:46:47.675Z,1.95
2018-09-08T10:49:14.653Z,2.10
2018-09-08T10:52:07.886Z,2.30
2018-09-08T10:54:35.672Z,2.12
2018-09-08T10:57:03.852Z,2.20
2018-09-08T10:59:30.854Z,2.22
2018-09-08T11:01:57.949Z,2.20
2018-09-08T11:04:25.567Z,2.50
2018-09-08T11:06:52.559Z,2.00
2018-09-08T11:09:19.510Z,2.10
2018-09-08T11:11:46.459Z,1.90
2018-09-08T11:14:13.483Z,2.40
2018-09-08T11:16:40.459Z,2.40
2018-09-08T11:19:07.398Z,2.55
2018-09-08T11:21:34.354Z,2.40
2018-09-08T11:24:01.289Z,2.37
2018-09-08T11:26:28.343Z,2.40
2018-09-08T11:28:55.375Z,2.30
2018-09-08T11:31:22.622Z,2.40
2018-09-08T11:33:49.619Z,2.50
2018-09-08T11:36:16.942Z,2.30
2018-09-08T11:38:44.012Z,2.30
2018-09-08T11:41:11.007Z,1.95
2018-09-08T11:43:37.978Z,2.10
2018-09-08T11:46:05.010Z,2.20
2018-09-08T11:48:32.555Z,1.95
2018-09-08T11:50:59.701Z,2.35
2018-09-08T11:53:26.737Z,4.60
2018-09-08T11:55:53.747Z,2.02
2018-09-08T11:58:20.931Z,2.20
2018-09-08T12:00:48.046Z,2.20
2018-09-08T12:03:15.011Z,1.70
2018-09-08T12:05:42.008Z,1.80
2018-09-08T12:08:09.044Z,1.90
2018-09-08T12:10:36.082Z,1.80
2018-09-08T12:13:03.048Z,1.80
2018-09-08T12:15:30.303Z,1.90
2018-09-08T12:17:57.290Z,2.10
2018-09-08T12:20:24.515Z,1.80
2018-09-08T12:22:51.519Z,1.65
2018-09-08T12:25:18.478Z,1.77
2018-09-08T12:27:45.467Z,1.60
2018-09-08T12:30:12.444Z,1.67
2018-09-08T12:32:40.037Z,1.87
2018-09-08T12:35:07.067Z,4.33
2018-09-08T12:37:34.308Z,1.90
2018-09-08T12:40:01.336Z,1.80
2018-09-08T12:42:28.423Z,1.70
2018-09-08T12:44:55.455Z,1.90
2018-09-08T12:47:22.668Z,1.67
2018-09-08T12:49:49.753Z,2.10
2018-09-08T12:52:17.018Z,2.00
2018-09-08T12:54:44.089Z,1.85
2018-09-08T12:57:11.139Z,2.00
2018-09-08T12:59:38.321Z,2.30
2018-09-08T13:02:05.361Z,1.90
2018-09-08T13:04:32.415Z,4.95
2018-09-08T13:06:59.401Z,2.00
2018-09-08T13:09:26.750Z,2.05
2018-09-08T13:11:53.804Z,2.05
2018-09-08T13:14:20.834Z,1.90
2018-09-08T13:16:48.106Z,1.77
2018-09-08T13:19:15.098Z,1.65
2018-09-08T13:21:42.096Z,1.70
2018-09-08T13:24:09.132Z,1.65
2018-09-08T13:26:36.143Z,1.50
2018-09-08T13:29:03.106Z,1.52
2018-09-08T13:31:30.116Z,2.08
2018-09-08T13:33:57.696Z,2.80
2018-09-08T13:36:24.672Z,4.33
2018-09-08T13:38:51.864Z,1.67
2018-09-08T13:41:18.804Z,1.75
2018-09-08T13:43:45.775Z,2.00
2018-09-08T13:46:12.807Z,3.42
2018-09-08T13:48:39.852Z,3.33
2018-09-08T13:51:06.830Z,1.85
2018-09-08T13:53:33.783Z,1.80
2018-09-08T13:56:00.793Z,1.92
2018-09-08T13:58:27.809Z,2.00
2018-09-08T14:00:54.760Z,1.87
2018-09-08T14:03:21.744Z,1.70
2018-09-08T14:05:48.700Z,1.83
2018-09-08T14:08:16.419Z,1.80
2018-09-08T14:10:44.317Z,1.85
2018-09-08T14:13:11.286Z,1.70
2018-09-08T14:15:38.258Z,1.70
2018-09-08T14:18:05.299Z,1.80
2018-09-08T14:20:32.269Z,1.85
2018-09-08T14:22:59.248Z,1.70
2018-09-08T14:25:26.251Z,3.80
2018-09-08T14:27:53.208Z,3.40
2018-09-08T14:30:20.157Z,2.07
2018-09-08T14:32:47.163Z,2.00
2018-09-08T14:35:14.590Z,2.10
2018-09-08T14:37:41.586Z,1.80
2018-09-08T14:40:08.602Z,2.02
2018-09-08T14:42:35.612Z,1.90
2018-09-08T14:45:02.574Z,1.80
2018-09-08T14:47:29.671Z,1.83
2018-09-08T14:49:56.640Z,1.70
2018-09-08T14:52:23.684Z,1.90
2018-09-08T14:54:50.719Z,1.90
2018-09-08T14:57:17.688Z,1.87
2018-09-08T14:59:44.680Z,1.92
2018-09-08T15:02:11.703Z,1.90
2018-09-08T15:04:38.785Z,1.80
2018-09-08T15:07:05.691Z,1.70
2018-09-08T15:09:32.686Z,1.80
2018-09-08T15:11:59.676Z,1.90
2018-09-08T15:14:26.676Z,1.90
2018-09-08T15:16:53.659Z,3.80
2018-09-08T15:19:20.627Z,2.62
2018-09-08T15:21:47.594Z,1.90
2018-09-08T15:24:14.616Z,1.90
2018-09-08T15:26:41.607Z,2.10
2018-09-08T15:29:08.571Z,1.80
2018-09-08T15:31:35.813Z,1.90
2018-09-08T15:34:02.818Z,1.80
2018-09-08T15:36:30.299Z,3.00
2018-09-08T15:38:57.314Z,4.60
2018-09-08T15:41:24.453Z,2.10
2018-09-08T15:43:51.571Z,2.37
2018-09-08T15:46:18.574Z,3.08
2018-09-08T15:48:45.566Z,1.67
2018-09-08T15:51:12.526Z,2.35
2018-09-08T15:53:39.531Z,3.60
2018-09-08T15:56:06.761Z,2.75
2018-09-08T15:58:33.796Z,2.20
2018-09-08T16:01:00.708Z,2.25
2018-09-08T16:03:27.672Z,1.90
2018-09-08T16:05:54.673Z,1.92
2018-09-08T16:08:21.675Z,1.70
2018-09-08T16:10:48.737Z,1.75
2018-09-08T16:13:15.722Z,1.80
2018-09-08T16:15:42.727Z,1.70
2018-09-08T16:18:09.706Z,1.50
2018-09-08T16:20:36.703Z,1.60
2018-09-08T16:23:03.722Z,1.50
2018-09-08T16:25:30.729Z,1.60
2018-09-08T16:27:57.707Z,1.70
2018-09-08T16:30:24.737Z,1.52
2018-09-08T16:32:51.813Z,1.65
2018-09-08T16:35:18.820Z,1.55
2018-09-08T16:37:46.192Z,1.57
2018-09-08T16:40:13.152Z,1.70
2018-09-08T16:42:40.169Z,1.70
2018-09-08T16:45:07.181Z,4.70
2018-09-08T16:47:34.185Z,3.12
2018-09-08T16:50:01.175Z,1.72
2018-09-08T16:52:28.518Z,1.80
2018-09-08T16:54:55.502Z,1.65
2018-09-08T16:57:22.491Z,1.82
2018-09-08T16:59:49.462Z,1.60
2018-09-08T17:02:16.463Z,1.70
2018-09-08T17:04:43.443Z,1.60
2018-09-08T17:07:10.470Z,1.55
2018-09-08T17:09:37.451Z,1.75
2018-09-08T17:12:04.475Z,1.90
2018-09-08T17:14:31.478Z,1.80
2018-09-08T17:16:58.458Z,1.95
2018-09-08T17:19:25.442Z,2.20
2018-09-08T17:21:52.452Z,2.22
2018-09-08T17:24:19.465Z,1.98
2018-09-08T17:26:46.436Z,1.90
2018-09-08T17:29:13.419Z,2.20
2018-09-08T17:31:40.440Z,2.58
2018-09-08T17:34:07.501Z,2.55
2018-09-08T17:36:34.465Z,2.20
2018-09-08T17:39:01.926Z,2.00
2018-09-08T17:41:28.834Z,1.80
2018-09-08T17:43:55.845Z,1.77
2018-09-08T17:46:22.818Z,1.80
2018-09-08T17:48:49.789Z,1.70
2018-09-08T17:51:16.820Z,1.60
2018-09-08T17:53:43.947Z,1.70
2018-09-08T17:56:10.988Z,1.70
2018-09-08T17:58:38.001Z,1.80
2018-09-08T18:01:05.026Z,1.70
2018-09-08T18:03:32.013Z,1.82
2018-09-08T18:05:59.035Z,1.90
2018-09-08T18:08:26.500Z,2.10
2018-09-08T18:10:54.047Z,1.80
2018-09-08T18:13:21.344Z,2.40
2018-09-08T18:15:48.315Z,2.58
2018-09-08T18:18:15.283Z,2.60
2018-09-08T18:20:42.272Z,2.52
2018-09-08T18:23:09.269Z,2.65
2018-09-08T18:25:36.231Z,2.50
2018-09-08T18:28:03.231Z,2.60
2018-09-08T18:30:30.248Z,2.85
2018-09-08T18:32:57.259Z,3.77
2018-09-08T18:35:24.249Z,6.70
2018-09-08T18:37:51.231Z,7.00
2018-09-08T18:40:18.763Z,5.10
2018-09-08T18:42:45.784Z,4.30
2018-09-08T18:45:12.764Z,4.60
2018-09-08T18:47:39.754Z,4.10
2018-09-08T18:50:06.837Z,3.92
2018-09-08T18:52:33.834Z,3.50
2018-09-08T18:55:01.127Z,3.90
2018-09-08T18:57:28.139Z,4.25
2018-09-08T18:59:55.116Z,4.90
2018-09-08T19:02:22.102Z,4.30
2018-09-08T19:04:49.126Z,4.17
2018-09-08T19:07:16.131Z,4.00
2018-09-08T19:09:47.795Z,4.10
2018-09-08T19:12:14.865Z,4.20
2018-09-08T19:14:47.624Z,3.95
2018-09-08T19:17:14.586Z,3.57
2018-09-08T19:19:41.580Z,7.40
2018-09-08T19:22:08.597Z,4.72
2018-09-08T19:24:41.323Z,4.90
2018-09-08T19:27:08.306Z,3.77
2018-09-08T19:29:41.117Z,3.47
2018-09-08T19:32:08.134Z,3.58
2018-09-08T19:34:35.143Z,4.35
2018-09-08T19:37:02.112Z,4.70
2018-09-08T19:39:29.119Z,4.80
2018-09-08T19:41:56.651Z,4.55
2018-09-08T19:44:23.656Z,3.80
2018-09-08T19:46:56.358Z,3.30
2018-09-08T19:49:23.378Z,3.20
2018-09-08T19:51:50.343Z,4.22
2018-09-08T19:54:17.346Z,3.90
2018-09-08T19:56:49.998Z,3.40
2018-09-08T19:59:16.986Z,3.10
2018-09-08T20:01:43.971Z,3.17
2018-09-08T20:04:10.991Z,3.60
2018-09-08T20:06:38.009Z,4.50
2018-09-08T20:09:05.418Z,6.03
2018-09-08T20:11:32.450Z,4.60
2018-09-08T20:13:59.459Z,4.30
2018-09-08T20:16:26.426Z,4.22
2018-09-08T20:18:53.510Z,4.50
2018-09-08T20:21:20.509Z,4.85
2018-09-08T20:23:47.530Z,4.85
2018-09-08T20:26:14.551Z,4.33
2018-09-08T20:28:41.560Z,4.53
2018-09-08T20:31:08.523Z,4.03
2018-09-08T20:33:35.565Z,4.42
2018-09-08T20:36:02.551Z,4.15
2018-09-08T20:38:29.543Z,4.17
2018-09-08T20:40:56.568Z,5.75
2018-09-08T20:43:23.871Z,5.00
2018-09-08T20:45:50.910Z,5.33
2018-09-08T20:48:17.977Z,4.80
2018-09-08T20:50:44.953Z,4.10
2018-09-08T20:53:11.982Z,3.42
2018-09-08T20:55:39.235Z,3.90
2018-09-08T20:58:06.210Z,3.27
2018-09-08T21:00:33.387Z,4.08
2018-09-08T21:03:00.412Z,3.80
2018-09-08T21:05:27.395Z,4.20
2018-09-08T21:07:54.374Z,4.00
2018-09-08T21:10:21.397Z,4.00
2018-09-08T21:12:48.390Z,3.98
2018-09-08T21:15:15.450Z,3.90
2018-09-08T21:17:42.487Z,3.52
2018-09-08T21:20:09.490Z,4.00
2018-09-08T21:22:36.498Z,3.60
2018-09-08T21:25:03.493Z,3.70
2018-09-08T21:27:30.537Z,4.45
2018-09-08T21:29:57.486Z,3.80
2018-09-08T21:32:24.536Z,3.20
2018-09-08T21:34:51.502Z,3.40
2018-09-08T21:37:18.479Z,3.30
2018-09-08T21:39:45.485Z,3.30
2018-09-08T21:42:12.466Z,3.30
2018-09-08T21:44:39.650Z,3.30
2018-09-08T21:47:06.654Z,3.30
2018-09-08T21:49:33.676Z,3.33
2018-09-08T21:52:00.638Z,3.47
2018-09-08T21:54:27.627Z,3.10
2018-09-08T21:56:54.603Z,3.10
2018-09-08T21:59:21.601Z,3.65
2018-09-08T22:01:48.586Z,3.52
2018-09-08T22:04:15.587Z,3.17
2018-09-08T22:06:42.599Z,3.67
2018-09-08T22:09:09.648Z,3.20
2018-09-08T22:11:36.622Z,3.50
2018-09-08T22:14:03.598Z,3.30
2018-09-08T22:16:30.559Z,3.40
2018-09-08T22:18:57.610Z,3.35
2018-09-08T22:21:24.586Z,3.50
2018-09-08T22:23:51.577Z,3.65
2018-09-08T22:26:18.596Z,3.50
2018-09-08T22:28:45.591Z,3.50
2018-09-08T22:31:12.574Z,3.67
2018-09-08T22:33:39.522Z,3.75
2018-09-08T22:36:06.674Z,3.83
2018-09-08T22:38:33.682Z,4.33
2018-09-08T22:41:00.685Z,3.85
2018-09-08T22:43:27.654Z,3.90
2018-09-08T22:45:54.803Z,4.00
2018-09-08T22:48:21.771Z,3.67
2018-09-08T22:50:48.730Z,3.60
2018-09-08T22:53:15.754Z,3.40
2018-09-08T22:55:42.726Z,3.67
2018-09-08T22:58:09.754Z,3.67
2018-09-08T23:00:36.954Z,3.95
2018-09-08T23:03:03.971Z,3.80
2018-09-08T23:05:30.963Z,3.47
2018-09-08T23:07:57.992Z,3.98
2018-09-08T23:10:24.974Z,3.77
2018-09-08T23:12:51.966Z,4.40
2018-09-08T23:15:18.969Z,4.50
2018-09-08T23:17:45.938Z,4.00
2018-09-08T23:20:12.905Z,4.10
2018-09-08T23:22:39.884Z,3.90
2018-09-08T23:25:06.855Z,4.00
2018-09-08T23:27:33.879Z,3.60
2018-09-08T23:30:00.856Z,4.03
2018-09-08T23:32:27.820Z,3.80
2018-09-08T23:34:54.798Z,4.00
2018-09-08T23:37:21.773Z,4.20
2018-09-08T23:39:48.735Z,3.75
2018-09-08T23:42:15.686Z,3.72
2018-09-08T23:44:42.704Z,4.00
2018-09-08T23:47:09.964Z,4.17
2018-09-08T23:49:36.961Z,3.95
2018-09-08T23:52:03.990Z,4.35
2018-09-08T23:54:30.958Z,4.00
2018-09-08T23:56:57.937Z,3.80
2018-09-08T23:59:24.953Z,4.25
